sensor_id;sensor_type;location;lat;lon;timestamp;P1;durP1;ratioP1;P2;durP2;ratioP2
11189;SDS011;5651;50.926;4.718;2022-12-18T00:01:22;61.10;;;27.38;;
11189;SDS011;5651;50.926;4.718;2022-12-18T00:03:49;62.92;;;29.35;;
11189;SDS011;5651;50.926;4.718;2022-12-18T00:06:20;62.97;;;26.63;;
11189;SDS011;5651;50.926;4.718;2022-12-18T00:08:50;58.50;;;27.67;;
11189;SDS011;5651;50.926;4.718;2022-12-18T00:11:17;63.67;;;29.70;;
11189;SDS011;5651;50.926;4.718;2022-12-18T00:13:49;62.97;;;28.83;;
11189;SDS011;5651;50.926;4.718;2022-12-18T00:16:19;62.72;;;29.17;;
11189;SDS011;5651;50.926;4.718;2022-12-18T00:18:53;64.07;;;27.40;;
11189;SDS011;5651;50.926;4.718;2022-12-18T00:21:22;68.47;;;28.02;;
11189;SDS011;5651;50.926;4.718;2022-12-18T00:23:48;65.10;;;28.60;;
11189;SDS011;5651;50.926;4.718;2022-12-18T00:26:21;52.45;;;25.23;;
11189;SDS011;5651;50.926;4.718;2022-12-18T00:28:54;56.83;;;25.20;;
11189;SDS011;5651;50.926;4.718;2022-12-18T00:31:22;61.88;;;27.35;;
11189;SDS011;5651;50.926;4.718;2022-12-18T00:33:50;55.60;;;24.50;;
11189;SDS011;5651;50.926;4.718;2022-12-18T00:36:19;65.50;;;27.23;;
11189;SDS011;5651;50.926;4.718;2022-12-18T00:38:50;61.00;;;26.05;;
11189;SDS011;5651;50.926;4.718;2022-12-18T00:41:21;61.55;;;27.65;;
11189;SDS011;5651;50.926;4.718;2022-12-18T00:44:09;60.90;;;26.25;;
11189;SDS011;5651;50.926;4.718;2022-12-18T00:46:39;52.65;;;25.00;;
11189;SDS011;5651;50.926;4.718;2022-12-18T00:49:11;59.53;;;26.92;;
11189;SDS011;5651;50.926;4.718;2022-12-18T00:51:39;60.35;;;27.27;;
11189;SDS011;5651;50.926;4.718;2022-12-18T00:54:08;63.13;;;27.08;;
11189;SDS011;5651;50.926;4.718;2022-12-18T00:56:35;56.83;;;25.20;;
11189;SDS011;5651;50.926;4.718;2022-12-18T00:59:04;55.53;;;26.23;;
11189;SDS011;5651;50.926;4.718;2022-12-18T01:01:32;61.97;;;27.02;;
11189;SDS011;5651;50.926;4.718;2022-12-18T01:04:01;57.22;;;26.13;;
11189;SDS011;5651;50.926;4.718;2022-12-18T01:06:30;64.03;;;25.23;;
11189;SDS011;5651;50.926;4.718;2022-12-18T01:08:56;57.70;;;26.42;;
11189;SDS011;5651;50.926;4.718;2022-12-18T01:11:24;63.25;;;24.83;;
11189;SDS011;5651;50.926;4.718;2022-12-18T01:13:51;57.53;;;25.50;;
11189;SDS011;5651;50.926;4.718;2022-12-18T01:16:19;57.38;;;26.10;;
11189;SDS011;5651;50.926;4.718;2022-12-18T01:18:50;57.88;;;25.25;;
11189;SDS011;5651;50.926;4.718;2022-12-18T01:21:17;49.72;;;25.52;;
11189;SDS011;5651;50.926;4.718;2022-12-18T01:23:45;59.50;;;25.85;;
11189;SDS011;5651;50.926;4.718;2022-12-18T01:26:15;56.10;;;24.08;;
11189;SDS011;5651;50.926;4.718;2022-12-18T01:28:46;57.15;;;25.88;;
11189;SDS011;5651;50.926;4.718;2022-12-18T01:31:14;58.50;;;24.92;;
11189;SDS011;5651;50.926;4.718;2022-12-18T01:33:49;53.63;;;23.63;;
11189;SDS011;5651;50.926;4.718;2022-12-18T01:36:20;58.70;;;25.30;;
11189;SDS011;5651;50.926;4.718;2022-12-18T01:38:53;57.33;;;25.00;;
11189;SDS011;5651;50.926;4.718;2022-12-18T01:41:24;57.17;;;24.25;;
11189;SDS011;5651;50.926;4.718;2022-12-18T01:47:28;53.15;;;23.25;;
11189;SDS011;5651;50.926;4.718;2022-12-18T01:52:48;51.05;;;23.10;;
11189;SDS011;5651;50.926;4.718;2022-12-18T01:55:18;54.95;;;22.63;;
11189;SDS011;5651;50.926;4.718;2022-12-18T01:57:46;49.55;;;22.60;;
11189;SDS011;5651;50.926;4.718;2022-12-18T02:00:16;51.72;;;22.55;;
11189;SDS011;5651;50.926;4.718;2022-12-18T02:02:45;53.13;;;23.38;;
11189;SDS011;5651;50.926;4.718;2022-12-18T02:05:19;54.22;;;21.88;;
11189;SDS011;5651;50.926;4.718;2022-12-18T02:18:40;52.03;;;23.15;;
11189;SDS011;5651;50.926;4.718;2022-12-18T02:21:21;54.35;;;21.95;;
11189;SDS011;5651;50.926;4.718;2022-12-18T02:24:01;56.83;;;23.90;;
11189;SDS011;5651;50.926;4.718;2022-12-18T02:26:34;52.78;;;22.30;;
11189;SDS011;5651;50.926;4.718;2022-12-18T02:29:13;55.10;;;24.42;;
11189;SDS011;5651;50.926;4.718;2022-12-18T02:31:45;50.33;;;22.27;;
11189;SDS011;5651;50.926;4.718;2022-12-18T02:34:19;51.78;;;23.48;;
11189;SDS011;5651;50.926;4.718;2022-12-18T02:36:51;49.42;;;24.00;;
11189;SDS011;5651;50.926;4.718;2022-12-18T02:39:22;54.40;;;25.35;;
11189;SDS011;5651;50.926;4.718;2022-12-18T02:41:53;50.17;;;25.63;;
11189;SDS011;5651;50.926;4.718;2022-12-18T02:44:19;56.45;;;24.23;;
11189;SDS011;5651;50.926;4.718;2022-12-18T02:46:49;44.95;;;21.20;;
11189;SDS011;5651;50.926;4.718;2022-12-18T02:57:54;52.00;;;21.58;;
11189;SDS011;5651;50.926;4.718;2022-12-18T03:00:31;52.00;;;22.73;;
11189;SDS011;5651;50.926;4.718;2022-12-18T03:03:02;48.50;;;21.33;;
11189;SDS011;5651;50.926;4.718;2022-12-18T03:05:33;51.53;;;21.75;;
11189;SDS011;5651;50.926;4.718;2022-12-18T03:08:15;41.78;;;20.92;;
11189;SDS011;5651;50.926;4.718;2022-12-18T03:10:53;55.35;;;22.15;;
11189;SDS011;5651;50.926;4.718;2022-12-18T03:13:36;48.88;;;21.48;;
11189;SDS011;5651;50.926;4.718;2022-12-18T03:16:05;45.53;;;21.52;;
11189;SDS011;5651;50.926;4.718;2022-12-18T03:18:37;54.33;;;22.90;;
11189;SDS011;5651;50.926;4.718;2022-12-18T03:21:10;49.88;;;22.88;;
11189;SDS011;5651;50.926;4.718;2022-12-18T03:23:47;49.22;;;23.45;;
11189;SDS011;5651;50.926;4.718;2022-12-18T03:26:17;53.35;;;24.40;;
11189;SDS011;5651;50.926;4.718;2022-12-18T03:28:51;47.33;;;21.52;;
11189;SDS011;5651;50.926;4.718;2022-12-18T03:31:24;47.25;;;22.30;;
11189;SDS011;5651;50.926;4.718;2022-12-18T03:33:54;52.95;;;24.23;;
11189;SDS011;5651;50.926;4.718;2022-12-18T03:36:23;47.67;;;22.38;;
11189;SDS011;5651;50.926;4.718;2022-12-18T03:38:51;44.28;;;23.02;;
11189;SDS011;5651;50.926;4.718;2022-12-18T03:44:24;44.85;;;22.02;;
11189;SDS011;5651;50.926;4.718;2022-12-18T03:50:27;54.72;;;24.30;;
11189;SDS011;5651;50.926;4.718;2022-12-18T03:52:28;48.13;;;22.27;;
11189;SDS011;5651;50.926;4.718;2022-12-18T03:54:58;53.15;;;23.27;;
11189;SDS011;5651;50.926;4.718;2022-12-18T03:57:29;51.55;;;21.48;;
11189;SDS011;5651;50.926;4.718;2022-12-18T04:00:08;34.22;;;18.20;;
11189;SDS011;5651;50.926;4.718;2022-12-18T04:02:44;38.85;;;17.40;;
11189;SDS011;5651;50.926;4.718;2022-12-18T04:05:14;47.97;;;22.95;;
11189;SDS011;5651;50.926;4.718;2022-12-18T04:07:41;49.40;;;24.30;;
11189;SDS011;5651;50.926;4.718;2022-12-18T04:10:10;45.83;;;22.27;;
11189;SDS011;5651;50.926;4.718;2022-12-18T04:12:38;49.78;;;22.17;;
11189;SDS011;5651;50.926;4.718;2022-12-18T04:15:06;47.63;;;22.48;;
11189;SDS011;5651;50.926;4.718;2022-12-18T04:17:38;50.95;;;22.92;;
11189;SDS011;5651;50.926;4.718;2022-12-18T04:20:15;46.33;;;22.00;;
11189;SDS011;5651;50.926;4.718;2022-12-18T04:22:42;50.53;;;22.48;;
11189;SDS011;5651;50.926;4.718;2022-12-18T04:25:13;55.15;;;21.73;;
11189;SDS011;5651;50.926;4.718;2022-12-18T04:27:43;50.22;;;23.13;;
11189;SDS011;5651;50.926;4.718;2022-12-18T04:30:11;51.78;;;23.70;;
11189;SDS011;5651;50.926;4.718;2022-12-18T04:32:37;50.80;;;22.90;;
11189;SDS011;5651;50.926;4.718;2022-12-18T04:35:05;45.85;;;21.10;;
11189;SDS011;5651;50.926;4.718;2022-12-18T04:37:35;47.22;;;21.60;;
11189;SDS011;5651;50.926;4.718;2022-12-18T04:40:01;49.90;;;23.00;;
11189;SDS011;5651;50.926;4.718;2022-12-18T04:42:29;53.53;;;23.73;;
11189;SDS011;5651;50.926;4.718;2022-12-18T04:44:58;52.60;;;23.38;;
11189;SDS011;5651;50.926;4.718;2022-12-18T04:47:28;52.00;;;25.30;;
11189;SDS011;5651;50.926;4.718;2022-12-18T04:49:55;43.65;;;21.77;;
11189;SDS011;5651;50.926;4.718;2022-12-18T04:52:20;51.60;;;23.30;;
11189;SDS011;5651;50.926;4.718;2022-12-18T04:54:46;47.25;;;23.10;;
11189;SDS011;5651;50.926;4.718;2022-12-18T04:57:15;58.08;;;23.08;;
11189;SDS011;5651;50.926;4.718;2022-12-18T04:59:43;49.38;;;21.63;;
11189;SDS011;5651;50.926;4.718;2022-12-18T05:02:09;52.35;;;21.25;;
11189;SDS011;5651;50.926;4.718;2022-12-18T05:04:38;56.72;;;24.42;;
11189;SDS011;5651;50.926;4.718;2022-12-18T05:07:06;50.25;;;24.27;;
11189;SDS011;5651;50.926;4.718;2022-12-18T05:09:39;56.22;;;22.67;;
11189;SDS011;5651;50.926;4.718;2022-12-18T05:12:05;53.00;;;21.83;;
11189;SDS011;5651;50.926;4.718;2022-12-18T05:14:32;50.30;;;21.02;;
11189;SDS011;5651;50.926;4.718;2022-12-18T05:17:00;46.97;;;21.83;;
11189;SDS011;5651;50.926;4.718;2022-12-18T05:19:26;46.63;;;23.13;;
11189;SDS011;5651;50.926;4.718;2022-12-18T05:21:52;51.45;;;20.35;;
11189;SDS011;5651;50.926;4.718;2022-12-18T05:24:20;50.42;;;21.95;;
11189;SDS011;5651;50.926;4.718;2022-12-18T05:26:46;49.33;;;19.85;;
11189;SDS011;5651;50.926;4.718;2022-12-18T05:29:12;43.58;;;20.00;;
11189;SDS011;5651;50.926;4.718;2022-12-18T05:31:42;45.55;;;21.35;;
11189;SDS011;5651;50.926;4.718;2022-12-18T05:34:13;43.03;;;21.05;;
11189;SDS011;5651;50.926;4.718;2022-12-18T05:36:38;42.10;;;19.08;;
11189;SDS011;5651;50.926;4.718;2022-12-18T05:39:06;48.10;;;21.13;;
11189;SDS011;5651;50.926;4.718;2022-12-18T05:41:34;46.63;;;20.23;;
11189;SDS011;5651;50.926;4.718;2022-12-18T05:44:02;43.83;;;20.98;;
11189;SDS011;5651;50.926;4.718;2022-12-18T05:46:28;42.20;;;19.45;;
11189;SDS011;5651;50.926;4.718;2022-12-18T05:48:59;45.92;;;21.63;;
11189;SDS011;5651;50.926;4.718;2022-12-18T05:51:27;49.15;;;21.35;;
11189;SDS011;5651;50.926;4.718;2022-12-18T05:53:56;44.60;;;21.30;;
11189;SDS011;5651;50.926;4.718;2022-12-18T05:56:22;49.75;;;21.90;;
11189;SDS011;5651;50.926;4.718;2022-12-18T05:58:50;48.72;;;21.02;;
11189;SDS011;5651;50.926;4.718;2022-12-18T06:01:18;47.15;;;20.05;;
11189;SDS011;5651;50.926;4.718;2022-12-18T06:03:48;43.00;;;19.63;;
11189;SDS011;5651;50.926;4.718;2022-12-18T06:06:15;50.25;;;19.52;;
11189;SDS011;5651;50.926;4.718;2022-12-18T06:08:46;40.63;;;20.02;;
11189;SDS011;5651;50.926;4.718;2022-12-18T06:11:12;40.08;;;19.50;;
11189;SDS011;5651;50.926;4.718;2022-12-18T06:13:38;37.80;;;19.13;;
11189;SDS011;5651;50.926;4.718;2022-12-18T06:16:05;37.08;;;18.85;;
11189;SDS011;5651;50.926;4.718;2022-12-18T06:18:32;43.65;;;18.75;;
11189;SDS011;5651;50.926;4.718;2022-12-18T06:21:05;40.28;;;19.83;;
11189;SDS011;5651;50.926;4.718;2022-12-18T06:23:38;35.67;;;17.10;;
11189;SDS011;5651;50.926;4.718;2022-12-18T06:26:05;40.30;;;20.02;;
11189;SDS011;5651;50.926;4.718;2022-12-18T06:28:32;41.78;;;19.40;;
11189;SDS011;5651;50.926;4.718;2022-12-18T06:30:58;47.03;;;21.10;;
11189;SDS011;5651;50.926;4.718;2022-12-18T06:33:27;41.08;;;20.15;;
11189;SDS011;5651;50.926;4.718;2022-12-18T06:35:54;44.33;;;19.88;;
11189;SDS011;5651;50.926;4.718;2022-12-18T06:38:27;37.05;;;19.52;;
11189;SDS011;5651;50.926;4.718;2022-12-18T06:40:56;40.03;;;18.13;;
11189;SDS011;5651;50.926;4.718;2022-12-18T06:43:22;45.13;;;19.08;;
11189;SDS011;5651;50.926;4.718;2022-12-18T06:45:48;42.25;;;19.10;;
11189;SDS011;5651;50.926;4.718;2022-12-18T06:48:19;54.40;;;21.20;;
11189;SDS011;5651;50.926;4.718;2022-12-18T06:50:48;47.20;;;21.52;;
11189;SDS011;5651;50.926;4.718;2022-12-18T06:53:13;47.17;;;21.80;;
11189;SDS011;5651;50.926;4.718;2022-12-18T06:55:41;48.15;;;22.73;;
11189;SDS011;5651;50.926;4.718;2022-12-18T06:58:07;42.50;;;20.40;;
11189;SDS011;5651;50.926;4.718;2022-12-18T07:00:40;52.55;;;22.90;;
11189;SDS011;5651;50.926;4.718;2022-12-18T07:03:06;50.67;;;21.65;;
11189;SDS011;5651;50.926;4.718;2022-12-18T07:05:32;51.15;;;20.90;;
11189;SDS011;5651;50.926;4.718;2022-12-18T07:07:57;47.63;;;20.83;;
11189;SDS011;5651;50.926;4.718;2022-12-18T07:10:28;44.10;;;18.98;;
11189;SDS011;5651;50.926;4.718;2022-12-18T07:12:54;38.67;;;19.23;;
11189;SDS011;5651;50.926;4.718;2022-12-18T07:15:19;46.65;;;19.50;;
11189;SDS011;5651;50.926;4.718;2022-12-18T07:17:48;39.67;;;20.33;;
11189;SDS011;5651;50.926;4.718;2022-12-18T07:20:15;43.22;;;21.00;;
11189;SDS011;5651;50.926;4.718;2022-12-18T07:22:43;43.15;;;19.38;;
11189;SDS011;5651;50.926;4.718;2022-12-18T07:25:09;39.60;;;19.95;;
11189;SDS011;5651;50.926;4.718;2022-12-18T07:27:34;34.95;;;19.50;;
11189;SDS011;5651;50.926;4.718;2022-12-18T07:30:03;42.83;;;21.45;;
11189;SDS011;5651;50.926;4.718;2022-12-18T07:32:30;43.75;;;21.42;;
11189;SDS011;5651;50.926;4.718;2022-12-18T07:34:58;44.72;;;18.73;;
11189;SDS011;5651;50.926;4.718;2022-12-18T07:37:24;44.30;;;19.67;;
11189;SDS011;5651;50.926;4.718;2022-12-18T07:39:50;42.25;;;20.15;;
11189;SDS011;5651;50.926;4.718;2022-12-18T07:42:16;38.40;;;17.38;;
11189;SDS011;5651;50.926;4.718;2022-12-18T07:45:00;41.58;;;19.48;;
11189;SDS011;5651;50.926;4.718;2022-12-18T07:47:33;35.75;;;17.98;;
11189;SDS011;5651;50.926;4.718;2022-12-18T07:50:06;44.78;;;20.95;;
11189;SDS011;5651;50.926;4.718;2022-12-18T07:52:32;36.72;;;17.67;;
11189;SDS011;5651;50.926;4.718;2022-12-18T07:54:59;32.25;;;17.45;;
11189;SDS011;5651;50.926;4.718;2022-12-18T07:57:27;42.40;;;19.00;;
11189;SDS011;5651;50.926;4.718;2022-12-18T07:59:53;42.65;;;18.80;;
11189;SDS011;5651;50.926;4.718;2022-12-18T08:02:21;41.00;;;19.23;;
11189;SDS011;5651;50.926;4.718;2022-12-18T08:04:47;44.30;;;19.20;;
11189;SDS011;5651;50.926;4.718;2022-12-18T08:07:13;38.95;;;18.85;;
11189;SDS011;5651;50.926;4.718;2022-12-18T08:09:40;42.13;;;19.35;;
11189;SDS011;5651;50.926;4.718;2022-12-18T08:12:06;43.17;;;19.60;;
11189;SDS011;5651;50.926;4.718;2022-12-18T08:14:32;47.90;;;21.85;;
11189;SDS011;5651;50.926;4.718;2022-12-18T08:16:58;50.60;;;20.95;;
11189;SDS011;5651;50.926;4.718;2022-12-18T08:19:24;45.63;;;20.63;;
11189;SDS011;5651;50.926;4.718;2022-12-18T08:21:50;44.78;;;21.80;;
11189;SDS011;5651;50.926;4.718;2022-12-18T08:24:16;51.97;;;21.35;;
11189;SDS011;5651;50.926;4.718;2022-12-18T08:26:43;39.95;;;20.55;;
11189;SDS011;5651;50.926;4.718;2022-12-18T08:29:09;61.03;;;24.38;;
11189;SDS011;5651;50.926;4.718;2022-12-18T08:31:37;42.60;;;19.85;;
11189;SDS011;5651;50.926;4.718;2022-12-18T08:34:03;51.95;;;23.75;;
11189;SDS011;5651;50.926;4.718;2022-12-18T08:36:29;48.33;;;23.50;;
11189;SDS011;5651;50.926;4.718;2022-12-18T08:38:57;48.97;;;22.17;;
11189;SDS011;5651;50.926;4.718;2022-12-18T08:41:23;43.95;;;21.67;;
11189;SDS011;5651;50.926;4.718;2022-12-18T08:43:49;43.97;;;20.70;;
11189;SDS011;5651;50.926;4.718;2022-12-18T08:46:37;49.10;;;22.67;;
11189;SDS011;5651;50.926;4.718;2022-12-18T08:49:07;46.03;;;22.08;;
11189;SDS011;5651;50.926;4.718;2022-12-18T08:51:36;44.70;;;20.85;;
11189;SDS011;5651;50.926;4.718;2022-12-18T08:54:02;43.75;;;22.75;;
11189;SDS011;5651;50.926;4.718;2022-12-18T08:56:29;54.92;;;21.27;;
11189;SDS011;5651;50.926;4.718;2022-12-18T08:58:55;48.13;;;21.58;;
11189;SDS011;5651;50.926;4.718;2022-12-18T09:01:24;48.60;;;24.95;;
11189;SDS011;5651;50.926;4.718;2022-12-18T09:03:50;52.35;;;25.85;;
11189;SDS011;5651;50.926;4.718;2022-12-18T09:06:16;47.25;;;23.92;;
11189;SDS011;5651;50.926;4.718;2022-12-18T09:08:44;55.40;;;26.42;;
11189;SDS011;5651;50.926;4.718;2022-12-18T09:11:17;46.67;;;24.27;;
11189;SDS011;5651;50.926;4.718;2022-12-18T09:13:48;41.83;;;21.13;;
11189;SDS011;5651;50.926;4.718;2022-12-18T09:16:16;45.35;;;22.63;;
11189;SDS011;5651;50.926;4.718;2022-12-18T09:18:43;47.17;;;22.30;;
11189;SDS011;5651;50.926;4.718;2022-12-18T09:21:16;44.92;;;22.02;;
11189;SDS011;5651;50.926;4.718;2022-12-18T09:23:48;38.75;;;20.27;;
11189;SDS011;5651;50.926;4.718;2022-12-18T09:26:15;41.13;;;21.40;;
11189;SDS011;5651;50.926;4.718;2022-12-18T09:28:41;41.53;;;20.33;;
11189;SDS011;5651;50.926;4.718;2022-12-18T09:31:13;35.33;;;18.77;;
11189;SDS011;5651;50.926;4.718;2022-12-18T09:33:42;39.97;;;19.60;;
11189;SDS011;5651;50.926;4.718;2022-12-18T09:36:09;37.75;;;19.48;;
11189;SDS011;5651;50.926;4.718;2022-12-18T09:38:36;43.35;;;21.65;;
11189;SDS011;5651;50.926;4.718;2022-12-18T09:43:53;51.17;;;23.23;;
11189;SDS011;5651;50.926;4.718;2022-12-18T09:46:28;42.10;;;20.60;;
11189;SDS011;5651;50.926;4.718;2022-12-18T09:48:58;47.85;;;19.90;;
11189;SDS011;5651;50.926;4.718;2022-12-18T09:51:33;39.45;;;17.48;;
11189;SDS011;5651;50.926;4.718;2022-12-18T09:54:10;41.20;;;20.95;;
11189;SDS011;5651;50.926;4.718;2022-12-18T09:56:40;40.13;;;20.30;;
11189;SDS011;5651;50.926;4.718;2022-12-18T09:59:41;38.17;;;18.75;;
11189;SDS011;5651;50.926;4.718;2022-12-18T10:02:12;38.40;;;19.35;;
11189;SDS011;5651;50.926;4.718;2022-12-18T10:04:43;35.63;;;17.63;;
11189;SDS011;5651;50.926;4.718;2022-12-18T10:10:42;35.05;;;16.90;;
11189;SDS011;5651;50.926;4.718;2022-12-18T10:12:59;35.97;;;18.42;;
11189;SDS011;5651;50.926;4.718;2022-12-18T10:15:58;29.42;;;15.77;;
11189;SDS011;5651;50.926;4.718;2022-12-18T10:27:18;34.22;;;17.88;;
11189;SDS011;5651;50.926;4.718;2022-12-18T10:29:56;31.80;;;17.13;;
11189;SDS011;5651;50.926;4.718;2022-12-18T10:32:26;33.88;;;17.75;;
11189;SDS011;5651;50.926;4.718;2022-12-18T10:34:57;31.23;;;16.70;;
11189;SDS011;5651;50.926;4.718;2022-12-18T10:37:27;32.50;;;16.70;;
11189;SDS011;5651;50.926;4.718;2022-12-18T10:42:35;28.75;;;16.77;;
11189;SDS011;5651;50.926;4.718;2022-12-18T10:45:21;29.08;;;16.77;;
11189;SDS011;5651;50.926;4.718;2022-12-18T10:47:48;32.42;;;16.70;;
11189;SDS011;5651;50.926;4.718;2022-12-18T10:50:33;34.60;;;16.98;;
11189;SDS011;5651;50.926;4.718;2022-12-18T10:53:05;31.30;;;16.80;;
11189;SDS011;5651;50.926;4.718;2022-12-18T10:55:37;24.17;;;13.20;;
11189;SDS011;5651;50.926;4.718;2022-12-18T11:01:13;33.72;;;18.25;;
11189;SDS011;5651;50.926;4.718;2022-12-18T11:03:44;34.97;;;18.30;;
11189;SDS011;5651;50.926;4.718;2022-12-18T11:06:20;34.47;;;17.75;;
11189;SDS011;5651;50.926;4.718;2022-12-18T11:09:02;30.10;;;17.17;;
11189;SDS011;5651;50.926;4.718;2022-12-18T11:11:31;30.58;;;16.85;;
11189;SDS011;5651;50.926;4.718;2022-12-18T11:14:04;29.08;;;17.13;;
11189;SDS011;5651;50.926;4.718;2022-12-18T11:16:36;32.55;;;17.33;;
11189;SDS011;5651;50.926;4.718;2022-12-18T11:19:20;33.60;;;17.83;;
11189;SDS011;5651;50.926;4.718;2022-12-18T11:21:47;31.52;;;17.80;;
11189;SDS011;5651;50.926;4.718;2022-12-18T11:24:18;29.25;;;17.05;;
11189;SDS011;5651;50.926;4.718;2022-12-18T11:26:53;32.30;;;17.70;;
11189;SDS011;5651;50.926;4.718;2022-12-18T11:29:23;32.65;;;18.02;;
11189;SDS011;5651;50.926;4.718;2022-12-18T11:34:50;29.55;;;16.25;;
11189;SDS011;5651;50.926;4.718;2022-12-18T11:37:23;35.83;;;17.42;;
11189;SDS011;5651;50.926;4.718;2022-12-18T11:40:37;29.38;;;16.30;;
11189;SDS011;5651;50.926;4.718;2022-12-18T11:45:34;28.75;;;16.42;;
11189;SDS011;5651;50.926;4.718;2022-12-18T11:48:12;29.23;;;15.68;;
11189;SDS011;5651;50.926;4.718;2022-12-18T11:50:52;32.47;;;16.60;;
11189;SDS011;5651;50.926;4.718;2022-12-18T11:53:27;30.25;;;16.02;;
11189;SDS011;5651;50.926;4.718;2022-12-18T11:58:28;28.55;;;15.73;;
11189;SDS011;5651;50.926;4.718;2022-12-18T12:04:43;25.90;;;15.43;;
11189;SDS011;5651;50.926;4.718;2022-12-18T12:18:22;30.90;;;15.88;;
11189;SDS011;5651;50.926;4.718;2022-12-18T12:20:58;29.10;;;16.23;;
11189;SDS011;5651;50.926;4.718;2022-12-18T12:26:01;39.90;;;17.73;;
11189;SDS011;5651;50.926;4.718;2022-12-18T12:34:21;31.92;;;17.27;;
11189;SDS011;5651;50.926;4.718;2022-12-18T12:39:50;30.85;;;16.33;;
11189;SDS011;5651;50.926;4.718;2022-12-18T12:42:20;32.42;;;17.15;;
11189;SDS011;5651;50.926;4.718;2022-12-18T12:45:19;31.65;;;16.90;;
11189;SDS011;5651;50.926;4.718;2022-12-18T12:47:53;32.13;;;16.92;;
11189;SDS011;5651;50.926;4.718;2022-12-18T12:50:23;33.00;;;16.67;;
11189;SDS011;5651;50.926;4.718;2022-12-18T12:52:53;32.35;;;18.05;;
11189;SDS011;5651;50.926;4.718;2022-12-18T12:55:25;28.23;;;17.35;;
11189;SDS011;5651;50.926;4.718;2022-12-18T12:58:38;29.60;;;17.17;;
11189;SDS011;5651;50.926;4.718;2022-12-18T13:03:46;28.02;;;17.02;;
11189;SDS011;5651;50.926;4.718;2022-12-18T13:09:06;28.67;;;16.90;;
11189;SDS011;5651;50.926;4.718;2022-12-18T13:11:35;32.55;;;16.58;;
11189;SDS011;5651;50.926;4.718;2022-12-18T13:14:26;30.30;;;15.60;;
11189;SDS011;5651;50.926;4.718;2022-12-18T13:20:08;28.45;;;16.55;;
11189;SDS011;5651;50.926;4.718;2022-12-18T13:22:38;33.15;;;18.08;;
11189;SDS011;5651;50.926;4.718;2022-12-18T13:31:57;28.63;;;15.63;;
11189;SDS011;5651;50.926;4.718;2022-12-18T13:36:52;33.40;;;16.55;;
11189;SDS011;5651;50.926;4.718;2022-12-18T13:44:34;39.58;;;18.88;;
11189;SDS011;5651;50.926;4.718;2022-12-18T13:47:54;43.85;;;23.00;;
11189;SDS011;5651;50.926;4.718;2022-12-18T13:50:01;33.60;;;17.92;;
11189;SDS011;5651;50.926;4.718;2022-12-18T13:52:34;32.90;;;18.77;;
11189;SDS011;5651;50.926;4.718;2022-12-18T13:55:05;41.22;;;19.63;;
11189;SDS011;5651;50.926;4.718;2022-12-18T13:57:39;42.63;;;20.67;;
11189;SDS011;5651;50.926;4.718;2022-12-18T14:02:46;35.55;;;17.83;;
11189;SDS011;5651;50.926;4.718;2022-12-18T14:05:21;30.65;;;17.05;;
11189;SDS011;5651;50.926;4.718;2022-12-18T14:07:51;32.70;;;20.08;;
11189;SDS011;5651;50.926;4.718;2022-12-18T14:10:23;31.48;;;17.15;;
11189;SDS011;5651;50.926;4.718;2022-12-18T14:12:54;31.00;;;16.75;;
11189;SDS011;5651;50.926;4.718;2022-12-18T14:15:27;33.20;;;17.45;;
11189;SDS011;5651;50.926;4.718;2022-12-18T14:18:15;28.80;;;16.55;;
11189;SDS011;5651;50.926;4.718;2022-12-18T14:20:48;31.40;;;15.48;;
11189;SDS011;5651;50.926;4.718;2022-12-18T14:23:33;29.15;;;15.57;;
11189;SDS011;5651;50.926;4.718;2022-12-18T14:26:21;27.40;;;16.83;;
11189;SDS011;5651;50.926;4.718;2022-12-18T14:28:52;31.67;;;16.40;;
11189;SDS011;5651;50.926;4.718;2022-12-18T14:31:27;32.22;;;17.50;;
11189;SDS011;5651;50.926;4.718;2022-12-18T14:33:56;31.92;;;18.23;;
11189;SDS011;5651;50.926;4.718;2022-12-18T14:36:27;33.38;;;18.30;;
11189;SDS011;5651;50.926;4.718;2022-12-18T14:38:57;34.42;;;18.88;;
11189;SDS011;5651;50.926;4.718;2022-12-18T14:41:26;31.25;;;16.45;;
11189;SDS011;5651;50.926;4.718;2022-12-18T14:43:54;105.88;;;50.50;;
11189;SDS011;5651;50.926;4.718;2022-12-18T14:46:33;52.72;;;24.00;;
11189;SDS011;5651;50.926;4.718;2022-12-18T14:49:16;50.88;;;26.70;;
11189;SDS011;5651;50.926;4.718;2022-12-18T14:51:48;37.50;;;23.55;;
11189;SDS011;5651;50.926;4.718;2022-12-18T14:54:21;53.80;;;26.95;;
11189;SDS011;5651;50.926;4.718;2022-12-18T14:56:56;41.67;;;21.73;;
11189;SDS011;5651;50.926;4.718;2022-12-18T14:59:41;42.70;;;22.90;;
11189;SDS011;5651;50.926;4.718;2022-12-18T15:04:44;53.47;;;28.05;;
11189;SDS011;5651;50.926;4.718;2022-12-18T15:07:17;41.50;;;22.27;;
11189;SDS011;5651;50.926;4.718;2022-12-18T15:12:42;62.30;;;31.83;;
11189;SDS011;5651;50.926;4.718;2022-12-18T15:18:04;41.55;;;20.15;;
11189;SDS011;5651;50.926;4.718;2022-12-18T15:20:47;39.22;;;19.70;;
11189;SDS011;5651;50.926;4.718;2022-12-18T15:23:26;39.55;;;19.80;;
11189;SDS011;5651;50.926;4.718;2022-12-18T15:26:00;35.53;;;18.80;;
11189;SDS011;5651;50.926;4.718;2022-12-18T15:30:58;40.40;;;21.02;;
11189;SDS011;5651;50.926;4.718;2022-12-18T15:33:34;38.70;;;18.55;;
11189;SDS011;5651;50.926;4.718;2022-12-18T15:36:09;37.47;;;20.58;;
11189;SDS011;5651;50.926;4.718;2022-12-18T15:38:37;34.42;;;18.45;;
11189;SDS011;5651;50.926;4.718;2022-12-18T15:41:12;36.85;;;18.83;;
11189;SDS011;5651;50.926;4.718;2022-12-18T15:43:40;30.75;;;17.25;;
11189;SDS011;5651;50.926;4.718;2022-12-18T15:46:15;38.35;;;19.80;;
11189;SDS011;5651;50.926;4.718;2022-12-18T15:48:47;36.40;;;19.60;;
11189;SDS011;5651;50.926;4.718;2022-12-18T15:53:50;38.38;;;20.35;;
11189;SDS011;5651;50.926;4.718;2022-12-18T15:56:21;36.08;;;20.02;;
11189;SDS011;5651;50.926;4.718;2022-12-18T15:59:13;37.58;;;19.40;;
11189;SDS011;5651;50.926;4.718;2022-12-18T16:01:42;37.95;;;18.98;;
11189;SDS011;5651;50.926;4.718;2022-12-18T16:04:13;40.67;;;21.15;;
11189;SDS011;5651;50.926;4.718;2022-12-18T16:06:43;39.00;;;21.30;;
11189;SDS011;5651;50.926;4.718;2022-12-18T16:09:09;37.67;;;19.23;;
11189;SDS011;5651;50.926;4.718;2022-12-18T16:11:37;49.35;;;25.40;;
11189;SDS011;5651;50.926;4.718;2022-12-18T16:14:15;38.75;;;21.52;;
11189;SDS011;5651;50.926;4.718;2022-12-18T16:16:55;41.90;;;21.27;;
11189;SDS011;5651;50.926;4.718;2022-12-18T16:19:22;44.28;;;22.02;;
11189;SDS011;5651;50.926;4.718;2022-12-18T16:21:52;37.17;;;20.05;;
11189;SDS011;5651;50.926;4.718;2022-12-18T16:24:22;43.88;;;24.00;;
11189;SDS011;5651;50.926;4.718;2022-12-18T16:26:53;43.83;;;24.10;;
11189;SDS011;5651;50.926;4.718;2022-12-18T16:29:22;40.50;;;20.45;;
11189;SDS011;5651;50.926;4.718;2022-12-18T16:31:52;43.30;;;21.50;;
11189;SDS011;5651;50.926;4.718;2022-12-18T16:34:22;43.97;;;22.58;;
11189;SDS011;5651;50.926;4.718;2022-12-18T16:39:23;34.20;;;18.75;;
11189;SDS011;5651;50.926;4.718;2022-12-18T16:41:52;38.40;;;21.05;;
11189;SDS011;5651;50.926;4.718;2022-12-18T16:44:18;42.20;;;25.63;;
11189;SDS011;5651;50.926;4.718;2022-12-18T16:46:46;44.05;;;22.05;;
11189;SDS011;5651;50.926;4.718;2022-12-18T16:49:13;41.25;;;21.90;;
11189;SDS011;5651;50.926;4.718;2022-12-18T16:51:41;48.67;;;27.58;;
11189;SDS011;5651;50.926;4.718;2022-12-18T16:54:10;41.53;;;22.30;;
11189;SDS011;5651;50.926;4.718;2022-12-18T16:56:36;41.58;;;21.92;;
11189;SDS011;5651;50.926;4.718;2022-12-18T16:59:06;41.10;;;20.45;;
11189;SDS011;5651;50.926;4.718;2022-12-18T17:01:35;38.33;;;20.90;;
11189;SDS011;5651;50.926;4.718;2022-12-18T17:04:04;40.55;;;20.92;;